Time;durP1;ratioP1;P1;durP2;ratioP2;P2;SDS_P1;SDS_P2;PMS_P1;PMS_P2;Temp;Humidity;BMP_temperature;BMP_pressure;BME280_temperature;BME280_humidity;BME280_pressure;Samples;Min_cycle;Max_cycle;Signal;HPM_P1;HPM_P2
2020/12/29 00:00:53;;;;;;;7.43;6.17;;;3.50;99.90;;;;;;4842207;29;20203;-93
2020/12/29 00:03:20;;;;;;;13.63;6.73;;;3.50;99.90;;;;;;4843429;29;20188;-93
2020/12/29 00:05:46;;;;;;;8.03;5.30;;;3.50;99.90;;;;;;4843035;29;20220;-93
2020/12/29 00:08:15;;;;;;;9.57;4.10;;;3.50;99.90;;;;;;4844827;29;20292;-93
2020/12/29 00:10:41;;;;;;;10.63;5.60;;;3.50;99.90;;;;;;4824678;29;21174;-94
2020/12/29 00:13:08;;;;;;;7.33;5.53;;;3.50;99.90;;;;;;4853571;29;20331;-95
2020/12/29 00:15:39;;;;;;;8.50;4.83;;;3.50;99.90;;;;;;4855645;29;20227;-94
2020/12/29 00:18:08;;;;;;;6.10;4.13;;;3.60;99.90;;;;;;4825476;29;20236;-94
2020/12/29 00:20:34;;;;;;;10.17;6.03;;;3.60;99.90;;;;;;4831964;29;20220;-93
2020/12/29 00:23:00;;;;;;;3.43;2.53;;;3.70;99.90;;;;;;4838285;29;20392;-93
2020/12/29 00:25:26;;;;;;;8.90;6.30;;;3.70;99.90;;;;;;4844587;29;20224;-94
2020/12/29 00:27:52;;;;;;;7.13;5.33;;;3.70;99.90;;;;;;4836805;29;20215;-94
2020/12/29 00:30:20;;;;;;;7.77;6.53;;;3.70;99.90;;;;;;4854980;29;20708;-93
2020/12/29 00:32:48;;;;;;;4.90;4.00;;;3.60;99.90;;;;;;4838713;29;20219;-93
2020/12/29 00:35:14;;;;;;;5.83;5.03;;;3.70;99.90;;;;;;4859418;29;20224;-93
2020/12/29 00:37:40;;;;;;;5.07;4.47;;;3.60;99.90;;;;;;4827088;29;20582;-93
2020/12/29 00:40:06;;;;;;;6.57;6.00;;;3.70;99.90;;;;;;4840542;29;20229;-93
2020/12/29 00:42:33;;;;;;;5.47;3.23;;;3.70;99.90;;;;;;4844517;29;20675;-92
2020/12/29 00:44:59;;;;;;;6.20;4.53;;;3.70;99.90;;;;;;4841415;29;20234;-92
2020/12/29 00:47:25;;;;;;;9.30;6.03;;;3.70;99.90;;;;;;4840362;29;20235;-93
2020/12/29 00:49:51;;;;;;;7.27;4.30;;;3.60;99.90;;;;;;4847714;29;20236;-93
2020/12/29 00:52:17;;;;;;;5.27;4.77;;;3.60;99.90;;;;;;4839541;29;20260;-93
2020/12/29 00:54:43;;;;;;;9.33;5.30;;;3.60;99.90;;;;;;4824332;29;20629;-93
2020/12/29 00:57:08;;;;;;;7.30;6.60;;;3.60;99.90;;;;;;4842939;29;20219;-92
2020/12/29 00:59:34;;;;;;;8.50;5.73;;;3.60;99.90;;;;;;4857857;29;20283;-93
2020/12/29 01:02:00;;;;;;;7.10;4.93;;;3.60;99.90;;;;;;4843917;29;20531;-93
2020/12/29 01:04:26;;;;;;;10.70;6.70;;;3.60;99.90;;;;;;4842086;29;20635;-94
2020/12/29 01:06:52;;;;;;;11.83;5.10;;;3.60;99.90;;;;;;4856704;29;20244;-93
2020/12/29 01:09:18;;;;;;;8.60;4.40;;;3.50;99.90;;;;;;4845090;29;20189;-93
2020/12/29 01:11:44;;;;;;;12.23;6.43;;;3.60;99.90;;;;;;4834556;29;20231;-93
2020/12/29 01:14:10;;;;;;;6.00;5.23;;;3.50;99.90;;;;;;4822230;29;20243;-92
2020/12/29 01:16:36;;;;;;;10.70;5.23;;;3.50;99.90;;;;;;4837320;29;20262;-94
2020/12/29 01:19:04;;;;;;;6.70;5.27;;;3.60;99.90;;;;;;4821480;29;20314;-93
2020/12/29 01:21:30;;;;;;;7.17;3.70;;;3.50;99.90;;;;;;4823710;29;20625;-93
2020/12/29 01:23:58;;;;;;;4.63;3.57;;;3.50;99.90;;;;;;4836327;29;20244;-93
2020/12/29 01:26:25;;;;;;;7.83;4.13;;;3.50;99.90;;;;;;4820984;29;20304;-93
2020/12/29 01:28:56;;;;;;;4.27;3.87;;;3.50;99.90;;;;;;4826895;29;20228;-93
2020/12/29 01:31:30;;;;;;;5.80;3.80;;;3.60;99.90;;;;;;4855848;29;20215;-94
2020/12/29 01:33:57;;;;;;;7.33;5.53;;;3.50;99.90;;;;;;4838429;29;20199;-93
2020/12/29 01:36:25;;;;;;;6.30;4.70;;;3.50;99.90;;;;;;4824813;29;20299;-93
2020/12/29 01:38:51;;;;;;;8.33;4.87;;;3.60;99.90;;;;;;4837879;29;20236;-93
2020/12/29 01:41:19;;;;;;;9.03;5.97;;;3.60;99.90;;;;;;4851819;29;20223;-93
2020/12/29 01:43:45;;;;;;;6.53;2.33;;;3.50;99.90;;;;;;4840309;29;20223;-93
2020/12/29 01:46:11;;;;;;;8.53;4.37;;;3.60;99.90;;;;;;4839006;29;20224;-93
2020/12/29 01:48:37;;;;;;;8.97;4.87;;;3.50;99.90;;;;;;4859626;29;20188;-93
2020/12/29 01:51:04;;;;;;;10.07;5.50;;;3.50;99.90;;;;;;4855387;29;20227;-93
2020/12/29 01:53:32;;;;;;;5.00;4.50;;;3.50;99.90;;;;;;4837978;29;20248;-93
2020/12/29 01:55:58;;;;;;;6.13;2.90;;;3.50;99.90;;;;;;4840000;29;20239;-93
2020/12/29 01:58:24;;;;;;;11.37;6.90;;;3.50;99.90;;;;;;4825088;29;20228;-93
2020/12/29 02:00:52;;;;;;;7.93;4.67;;;3.50;99.90;;;;;;4857842;29;20192;-94
2020/12/29 02:03:18;;;;;;;6.13;3.97;;;3.50;99.90;;;;;;4846619;29;20573;-93
2020/12/29 02:05:47;;;;;;;5.43;4.37;;;3.50;99.90;;;;;;4844819;29;21325;-93
2020/12/29 02:08:14;;;;;;;9.20;4.93;;;3.50;99.90;;;;;;4862520;29;20221;-93
2020/12/29 02:10:41;;;;;;;13.33;6.73;;;3.50;99.90;;;;;;4859061;29;20231;-93
2020/12/29 02:13:07;;;;;;;6.13;5.53;;;3.50;99.90;;;;;;4829517;29;21127;-94
2020/12/29 02:15:33;;;;;;;7.63;5.87;;;3.60;99.90;;;;;;4827472;29;20203;-93
2020/12/29 02:17:59;;;;;;;9.27;6.10;;;3.60;99.90;;;;;;4845154;29;20228;-93
2020/12/29 02:20:25;;;;;;;9.73;6.33;;;3.60;99.90;;;;;;4843476;29;20228;-93
2020/12/29 02:22:50;;;;;;;6.10;5.10;;;3.60;99.90;;;;;;4843997;29;20287;-93
2020/12/29 02:25:17;;;;;;;7.50;3.17;;;3.60;99.90;;;;;;4829852;29;20225;-93
2020/12/29 02:27:47;;;;;;;9.07;5.40;;;3.60;99.90;;;;;;4844557;29;20188;-93
2020/12/29 02:30:14;;;;;;;9.27;4.67;;;3.60;99.90;;;;;;4847156;29;20303;-93
2020/12/29 02:32:40;;;;;;;7.53;4.67;;;3.60;99.90;;;;;;4843227;29;20224;-93
2020/12/29 02:35:08;;;;;;;4.43;4.03;;;3.60;99.90;;;;;;4860184;29;20228;-93
2020/12/29 02:37:34;;;;;;;12.63;6.23;;;3.70;99.90;;;;;;4856615;29;20327;-93
2020/12/29 02:40:00;;;;;;;13.63;3.57;;;3.70;99.90;;;;;;4828551;29;20201;-93
2020/12/29 02:42:25;;;;;;;6.37;4.03;;;3.70;99.90;;;;;;4846722;29;20191;-93
2020/12/29 02:44:51;;;;;;;5.30;3.70;;;3.70;99.90;;;;;;4842480;29;20232;-93
2020/12/29 02:47:17;;;;;;;8.93;6.67;;;3.70;99.90;;;;;;4842454;29;20231;-91
2020/12/29 02:49:43;;;;;;;16.97;4.50;;;3.70;99.90;;;;;;4842483;29;20660;-92
2020/12/29 02:52:09;;;;;;;6.37;5.17;;;3.70;99.90;;;;;;4856737;29;20228;-91
2020/12/29 02:54:35;;;;;;;14.17;4.20;;;3.70;99.90;;;;;;4829522;29;20191;-92
2020/12/29 02:57:01;;;;;;;7.17;5.50;;;3.80;99.90;;;;;;4858699;29;20997;-92
2020/12/29 02:59:27;;;;;;;8.67;5.27;;;3.80;99.90;;;;;;4827958;29;20232;-92
2020/12/29 03:01:52;;;;;;;8.43;5.67;;;3.80;99.90;;;;;;4828933;29;20256;-92
2020/12/29 03:04:19;;;;;;;11.67;5.70;;;3.80;99.90;;;;;;4840860;29;20229;-92
2020/12/29 03:06:45;;;;;;;7.63;6.70;;;3.80;99.90;;;;;;4827994;29;20200;-91
2020/12/29 03:09:12;;;;;;;5.37;3.63;;;3.80;99.90;;;;;;4860644;29;20742;-92
2020/12/29 03:11:38;;;;;;;8.50;6.90;;;3.80;99.90;;;;;;4827865;29;20251;-92
2020/12/29 03:14:05;;;;;;;13.53;5.97;;;3.90;99.90;;;;;;4849918;29;20707;-92
2020/12/29 03:16:31;;;;;;;7.83;4.43;;;3.90;99.90;;;;;;4844932;29;20247;-92
2020/12/29 03:18:57;;;;;;;6.67;5.40;;;3.90;99.90;;;;;;4844230;29;20275;-92
2020/12/29 03:21:23;;;;;;;9.37;5.17;;;3.90;99.90;;;;;;4845992;29;20192;-92
2020/12/29 03:23:50;;;;;;;6.00;3.97;;;3.90;99.90;;;;;;4843229;29;20251;-92
2020/12/29 03:26:16;;;;;;;4.33;3.07;;;3.90;99.90;;;;;;4828070;29;20220;-93
2020/12/29 03:28:42;;;;;;;8.73;3.90;;;3.90;99.90;;;;;;4858486;29;20721;-92
2020/12/29 03:31:11;;;;;;;5.23;4.40;;;3.90;99.90;;;;;;4844639;29;20231;-92
2020/12/29 03:33:37;;;;;;;8.73;4.90;;;3.90;99.90;;;;;;4860444;29;20188;-93
2020/12/29 03:36:03;;;;;;;5.20;4.07;;;3.90;99.90;;;;;;4855600;29;20228;-93
2020/12/29 03:38:29;;;;;;;7.00;3.90;;;3.90;99.90;;;;;;4811610;29;20221;-92
2020/12/29 03:40:55;;;;;;;11.87;5.73;;;3.90;99.90;;;;;;4827810;29;20331;-93
2020/12/29 03:43:21;;;;;;;7.17;4.57;;;3.80;99.90;;;;;;4829263;29;20240;-93
2020/12/29 03:45:49;;;;;;;6.50;4.67;;;3.90;99.90;;;;;;4842469;29;20192;-93
2020/12/29 03:48:18;;;;;;;4.40;4.00;;;3.90;99.90;;;;;;4831158;29;20192;-93
2020/12/29 03:50:45;;;;;;;4.87;4.13;;;3.90;99.90;;;;;;4841938;29;20714;-93
2020/12/29 03:53:11;;;;;;;7.53;5.50;;;3.90;99.90;;;;;;4841976;29;20225;-93
2020/12/29 03:55:37;;;;;;;7.17;3.70;;;3.90;99.90;;;;;;4824205;29;20220;-93
2020/12/29 03:58:04;;;;;;;5.23;3.50;;;3.80;99.90;;;;;;4841620;29;20233;-92
2020/12/29 04:00:30;;;;;;;9.00;4.40;;;3.90;99.90;;;;;;4860293;29;20495;-92
2020/12/29 04:02:56;;;;;;;8.17;6.07;;;3.90;99.90;;;;;;4860666;29;20770;-92
2020/12/29 04:05:21;;;;;;;3.13;1.90;;;3.80;99.90;;;;;;4842609;29;20216;-93
2020/12/29 04:07:50;;;;;;;5.23;4.20;;;3.80;99.90;;;;;;4841074;29;20782;-91
2020/12/29 04:10:16;;;;;;;6.97;5.03;;;3.80;99.90;;;;;;4848936;29;20254;-92
2020/12/29 04:12:42;;;;;;;5.17;3.43;;;3.80;99.90;;;;;;4842570;29;20197;-92
2020/12/29 04:15:08;;;;;;;6.93;3.17;;;3.90;99.90;;;;;;4843795;29;20263;-92
2020/12/29 04:17:38;;;;;;;4.40;4.00;;;3.90;99.90;;;;;;4843366;29;20845;-91
2020/12/29 04:20:06;;;;;;;9.57;4.97;;;3.90;99.90;;;;;;4828449;29;20220;-92
2020/12/29 04:22:33;;;;;;;5.27;3.13;;;3.90;99.90;;;;;;4857776;29;20317;-92
2020/12/29 04:25:00;;;;;;;6.30;5.43;;;3.90;99.90;;;;;;4840992;29;20200;-92
2020/12/29 04:27:26;;;;;;;4.87;3.57;;;4.00;99.90;;;;;;4829729;29;21112;-92
2020/12/29 04:29:53;;;;;;;2.53;1.93;;;4.00;99.90;;;;;;4857734;29;20215;-92
2020/12/29 04:32:19;;;;;;;4.20;2.80;;;4.00;99.90;;;;;;4843000;29;20714;-92
2020/12/29 04:34:45;;;;;;;2.90;2.63;;;4.00;99.90;;;;;;4839760;29;20311;-92
2020/12/29 04:37:12;;;;;;;2.77;2.57;;;4.00;99.90;;;;;;4856440;29;20335;-92
2020/12/29 04:39:38;;;;;;;2.60;2.40;;;4.00;99.90;;;;;;4860611;29;20189;-92
2020/12/29 04:42:05;;;;;;;7.93;3.33;;;4.00;99.90;;;;;;4826432;29;20228;-92
2020/12/29 04:44:32;;;;;;;2.47;2.33;;;4.00;99.90;;;;;;4857012;29;20243;-92
2020/12/29 04:46:59;;;;;;;6.50;3.90;;;4.00;99.90;;;;;;4838043;29;20244;-92
2020/12/29 04:49:26;;;;;;;4.17;3.07;;;4.10;99.90;;;;;;4828015;29;20687;-92
2020/12/29 04:51:56;;;;;;;2.57;2.30;;;4.10;99.90;;;;;;4841062;29;20193;-92
2020/12/29 04:54:25;;;;;;;5.83;3.07;;;4.10;99.90;;;;;;4850778;29;20374;-92
2020/12/29 04:56:56;;;;;;;5.60;3.83;;;4.20;99.90;;;;;;4826624;29;20355;-92
2020/12/29 04:59:22;;;;;;;9.60;4.40;;;4.20;99.90;;;;;;4857859;29;20260;-92
2020/12/29 05:01:48;;;;;;;4.40;4.07;;;4.20;99.90;;;;;;4842269;29;20251;-92
2020/12/29 05:04:14;;;;;;;4.97;2.27;;;4.20;99.90;;;;;;4823854;29;20879;-92
2020/12/29 05:06:40;;;;;;;4.63;3.70;;;4.20;99.90;;;;;;4827890;29;20531;-92
2020/12/29 05:09:06;;;;;;;10.07;4.33;;;4.10;99.90;;;;;;4839742;29;20275;-91
2020/12/29 05:11:34;;;;;;;4.97;2.87;;;4.10;99.90;;;;;;4825596;29;20220;-91
2020/12/29 05:14:00;;;;;;;3.93;2.27;;;4.10;99.90;;;;;;4841051;29;20232;-92
2020/12/29 05:16:26;;;;;;;2.50;2.30;;;4.00;99.90;;;;;;4857802;29;20243;-91
2020/12/29 05:18:52;;;;;;;3.17;2.87;;;4.00;99.90;;;;;;4824314;29;20192;-91
2020/12/29 05:21:26;;;;;;;6.60;2.73;;;4.10;99.90;;;;;;4839311;29;20191;-91
2020/12/29 05:23:53;;;;;;;8.03;5.40;;;4.10;99.90;;;;;;4834814;29;20320;-92
2020/12/29 05:26:23;;;;;;;10.37;5.33;;;4.20;99.90;;;;;;4821335;29;20799;-92
2020/12/29 05:28:49;;;;;;;6.27;3.37;;;4.10;99.90;;;;;;4837762;29;20227;-92
2020/12/29 05:31:18;;;;;;;3.20;2.90;;;4.10;99.90;;;;;;4822755;29;20227;-92
2020/12/29 05:33:46;;;;;;;4.37;3.37;;;4.10;99.90;;;;;;4806549;29;20207;-91
2020/12/29 05:36:13;;;;;;;7.60;3.80;;;4.20;99.90;;;;;;4840836;29;20212;-92
2020/12/29 05:38:42;;;;;;;4.90;3.87;;;4.20;99.90;;;;;;4841370;29;20260;-91
2020/12/29 05:41:19;;;;;;;4.80;2.90;;;4.20;99.90;;;;;;4842136;29;20227;-92
2020/12/29 05:44:00;;;;;;;5.70;3.13;;;4.10;99.90;;;;;;4845666;29;20481;-92
2020/12/29 05:46:28;;;;;;;4.47;3.73;;;4.10;99.90;;;;;;4842793;29;20228;-91
2020/12/29 05:48:55;;;;;;;11.80;2.87;;;4.10;99.90;;;;;;4846133;29;20217;-92
2020/12/29 05:51:23;;;;;;;3.20;2.93;;;4.10;99.90;;;;;;4831205;29;20193;-90
2020/12/29 05:53:49;;;;;;;4.90;3.10;;;4.10;99.90;;;;;;4842307;29;20228;-91
2020/12/29 05:56:15;;;;;;;3.87;3.13;;;4.10;99.90;;;;;;4831340;29;20235;-91
2020/12/29 05:58:42;;;;;;;5.63;3.50;;;4.10;99.90;;;;;;4859445;29;20225;-91
2020/12/29 06:01:09;;;;;;;3.63;3.13;;;4.10;99.90;;;;;;4843792;29;21202;-91
2020/12/29 06:03:36;;;;;;;9.30;4.13;;;4.10;99.90;;;;;;4830876;29;20207;-91
2020/12/29 06:06:07;;;;;;;3.60;3.20;;;4.10;99.90;;;;;;4845236;29;20235;-91
2020/12/29 06:08:35;;;;;;;2.47;1.87;;;4.10;99.90;;;;;;4844225;29;20247;-92
2020/12/29 06:11:11;;;;;;;2.37;2.20;;;4.10;99.90;;;;;;4843076;29;20212;-91
2020/12/29 06:13:38;;;;;;;3.67;2.73;;;4.00;99.90;;;;;;4845498;29;20232;-92
2020/12/29 06:16:04;;;;;;;3.87;2.73;;;4.10;99.90;;;;;;4844250;29;20607;-92
2020/12/29 06:18:35;;;;;;;6.00;3.07;;;4.00;99.90;;;;;;4846091;29;20661;-92
2020/12/29 06:21:06;;;;;;;3.90;3.00;;;4.10;99.90;;;;;;4860413;29;20405;-92
2020/12/29 06:23:48;;;;;;;2.97;1.77;;;4.10;99.90;;;;;;4861686;29;20274;-91
2020/12/29 06:26:20;;;;;;;3.13;2.47;;;4.10;99.90;;;;;;4859297;29;20228;-90
2020/12/29 06:28:50;;;;;;;3.57;1.83;;;4.10;99.90;;;;;;4843396;29;20261;-91
2020/12/29 06:31:27;;;;;;;2.93;2.67;;;4.10;99.90;;;;;;4830586;29;20315;-91
2020/12/29 06:33:55;;;;;;;4.50;3.37;;;4.10;99.90;;;;;;4827436;29;20591;-90
2020/12/29 06:36:23;;;;;;;4.37;3.33;;;4.10;99.90;;;;;;4815028;29;20216;-90
2020/12/29 06:38:51;;;;;;;6.57;2.50;;;4.10;99.90;;;;;;4827087;29;20702;-90
2020/12/29 06:41:19;;;;;;;3.33;3.03;;;4.00;99.90;;;;;;4843242;29;20248;-91
2020/12/29 06:43:47;;;;;;;4.00;3.03;;;4.10;99.90;;;;;;4828485;29;20263;-90
2020/12/29 06:46:14;;;;;;;2.03;1.83;;;4.10;99.90;;;;;;4858348;29;20330;-92
2020/12/29 06:48:41;;;;;;;3.50;2.47;;;4.00;99.90;;;;;;4844481;29;20196;-92
2020/12/29 06:51:11;;;;;;;3.87;1.90;;;4.00;99.90;;;;;;4841817;29;20277;-92
2020/12/29 06:53:43;;;;;;;3.83;2.13;;;3.90;99.90;;;;;;4842508;29;20228;-92
2020/12/29 06:56:17;;;;;;;3.53;3.23;;;3.90;99.90;;;;;;4844559;29;20224;-90
2020/12/29 06:58:43;;;;;;;2.87;2.13;;;3.80;99.90;;;;;;4840764;29;20236;-87
2020/12/29 07:01:20;;;;;;;1.77;1.43;;;3.80;99.90;;;;;;4858378;29;20243;-88
2020/12/29 07:03:48;;;;;;;1.33;1.30;;;3.80;99.90;;;;;;4841531;29;20552;-88
2020/12/29 07:06:14;;;;;;;1.87;1.70;;;3.70;99.90;;;;;;4827467;29;20196;-88
2020/12/29 07:08:39;;;;;;;5.23;2.53;;;3.60;99.90;;;;;;4822933;29;20228;-89
2020/12/29 07:11:18;;;;;;;3.20;2.83;;;3.60;99.90;;;;;;4844883;29;20239;-89
2020/12/29 07:13:51;;;;;;;1.53;1.43;;;3.60;99.90;;;;;;4825584;29;20809;-87
2020/12/29 07:16:25;;;;;;;2.03;1.83;;;3.50;99.90;;;;;;4842622;29;20697;-91
2020/12/29 07:18:52;;;;;;;4.13;2.43;;;3.50;99.90;;;;;;4843219;29;20207;-89
2020/12/29 07:21:28;;;;;;;1.97;1.40;;;3.50;99.90;;;;;;4846251;29;20295;-86
2020/12/29 07:23:55;;;;;;;3.33;2.77;;;3.50;99.90;;;;;;4842260;29;20252;-89
2020/12/29 07:26:23;;;;;;;1.60;1.50;;;3.50;99.90;;;;;;4824355;29;20331;-88
2020/12/29 07:28:56;;;;;;;4.80;1.73;;;3.30;99.90;;;;;;4840264;29;20227;-89
2020/12/29 07:31:22;;;;;;;2.10;1.70;;;3.40;99.90;;;;;;4842259;29;20224;-89
2020/12/29 07:33:54;;;;;;;1.97;1.87;;;3.40;99.90;;;;;;4844428;29;20193;-88
2020/12/29 07:36:21;;;;;;;5.47;1.83;;;3.40;99.90;;;;;;4827825;29;20240;-87
2020/12/29 07:38:48;;;;;;;2.50;1.23;;;3.50;99.90;;;;;;4857170;29;20294;-87
2020/12/29 07:41:16;;;;;;;1.73;1.63;;;3.40;99.90;;;;;;4845306;29;20741;-91
2020/12/29 07:43:42;;;;;;;1.50;1.03;;;3.50;99.90;;;;;;4828034;29;20276;-88
2020/12/29 07:46:08;;;;;;;0.73;0.73;;;3.50;99.90;;;;;;4843496;29;20298;-88
2020/12/29 07:48:34;;;;;;;2.03;1.63;;;3.50;99.90;;;;;;4859133;29;20209;-88
2020/12/29 07:51:00;;;;;;;1.20;1.13;;;3.50;99.90;;;;;;4827410;29;20223;-89
2020/12/29 07:53:26;;;;;;;2.20;2.10;;;3.40;99.90;;;;;;4843581;29;20261;-90
2020/12/29 07:55:52;;;;;;;1.93;1.83;;;3.50;99.90;;;;;;4828230;29;20428;-88
2020/12/29 07:58:19;;;;;;;2.30;1.87;;;3.50;99.90;;;;;;4826210;29;20228;-87
2020/12/29 08:00:44;;;;;;;3.90;2.23;;;3.50;99.90;;;;;;4824483;29;20193;-90
2020/12/29 08:03:11;;;;;;;1.60;1.50;;;3.50;99.90;;;;;;4827778;29;20199;-87
2020/12/29 08:05:38;;;;;;;3.70;3.37;;;3.50;99.90;;;;;;4829537;29;20237;-92
2020/12/29 08:08:06;;;;;;;2.87;1.37;;;3.50;99.90;;;;;;4831351;29;20237;-93
2020/12/29 08:10:40;;;;;;;1.67;1.47;;;3.50;99.90;;;;;;4848519;29;20251;-93
2020/12/29 08:13:12;;;;;;;2.50;2.17;;;3.50;99.90;;;;;;4849053;29;20220;-93
2020/12/29 08:15:43;;;;;;;2.40;1.87;;;3.50;99.90;;;;;;4847251;29;20216;-92
2020/12/29 08:18:19;;;;;;;4.17;2.60;;;3.50;99.90;;;;;;4845526;29;20220;-93
2020/12/29 08:20:50;;;;;;;6.13;2.00;;;3.50;99.90;;;;;;4844683;29;20228;-95
2020/12/29 08:23:17;;;;;;;5.63;3.03;;;3.50;99.90;;;;;;4862649;29;20244;-93
2020/12/29 08:25:52;;;;;;;7.60;2.30;;;3.50;99.90;;;;;;4826964;29;20280;-90
2020/12/29 08:28:18;;;;;;;1.83;1.40;;;3.50;99.90;;;;;;4842101;29;20224;-91
2020/12/29 08:30:44;;;;;;;2.47;2.20;;;3.50;99.90;;;;;;4843740;29;20197;-89
2020/12/29 08:33:14;;;;;;;2.23;2.00;;;3.50;99.90;;;;;;4827234;29;20188;-90
2020/12/29 08:36:01;;;;;;;1.20;1.20;;;3.50;99.90;;;;;;4855142;29;20235;-89
2020/12/29 08:38:28;;;;;;;5.13;2.07;;;3.50;99.90;;;;;;4852102;29;20224;-89
2020/12/29 08:41:12;;;;;;;4.03;1.93;;;3.50;99.90;;;;;;4837856;29;20219;-89
2020/12/29 08:43:43;;;;;;;2.10;1.97;;;3.50;99.90;;;;;;4836020;29;20307;-92
2020/12/29 08:46:11;;;;;;;3.80;2.77;;;3.60;99.90;;;;;;4849450;29;20615;-88
2020/12/29 08:48:39;;;;;;;3.40;2.83;;;3.60;99.90;;;;;;4841054;29;20201;-91
2020/12/29 08:51:25;;;;;;;2.17;1.97;;;3.60;99.90;;;;;;4839126;29;20220;-89
2020/12/29 08:53:52;;;;;;;1.57;1.47;;;3.60;99.90;;;;;;4853570;29;20785;-91
2020/12/29 08:56:22;;;;;;;2.50;2.30;;;3.60;99.90;;;;;;4837304;29;20238;-88
2020/12/29 08:58:48;;;;;;;2.23;2.03;;;3.60;99.90;;;;;;4852956;29;20561;-89
2020/12/29 09:01:35;;;;;;;2.50;2.30;;;3.60;99.90;;;;;;4839877;29;20231;-89
2020/12/29 09:04:23;;;;;;;1.93;1.83;;;3.50;99.90;;;;;;4841323;29;20200;-90
2020/12/29 09:07:06;;;;;;;1.13;1.10;;;3.60;99.90;;;;;;4854902;29;20283;-90
2020/12/29 09:09:51;;;;;;;5.07;1.60;;;3.50;99.90;;;;;;4842306;29;20314;-89
2020/12/29 09:12:18;;;;;;;1.33;1.23;;;3.50;99.90;;;;;;4839611;29;20223;-87
2020/12/29 09:14:54;;;;;;;1.37;1.20;;;3.50;99.90;;;;;;4856343;29;20231;-89
2020/12/29 09:17:21;;;;;;;3.03;2.83;;;3.50;99.90;;;;;;4840585;29;20239;-89
2020/12/29 09:20:09;;;;;;;1.37;1.27;;;3.50;99.90;;;;;;4825811;29;20224;-88
2020/12/29 09:23:10;;;;;;;1.80;1.70;;;3.50;99.90;;;;;;4846825;29;20484;-90
2020/12/29 09:25:42;;;;;;;0.30;0.30;;;3.50;99.90;;;;;;4834351;29;20342;-89
2020/12/29 09:28:14;;;;;;;4.33;1.83;;;3.50;99.90;;;;;;4826010;29;21547;-89
2020/12/29 09:30:43;;;;;;;2.33;2.13;;;3.50;99.90;;;;;;4829827;29;20302;-89
2020/12/29 09:33:09;;;;;;;2.57;2.37;;;3.50;99.90;;;;;;4840945;29;20223;-89
2020/12/29 09:35:35;;;;;;;1.97;1.87;;;3.60;99.90;;;;;;4840301;29;20739;-90
2020/12/29 09:38:01;;;;;;;1.53;1.43;;;3.50;99.90;;;;;;4809671;29;21949;-88
2020/12/29 09:40:29;;;;;;;1.60;1.33;;;3.50;99.90;;;;;;4824425;29;20294;-88
2020/12/29 09:42:55;;;;;;;0.90;0.87;;;3.60;99.90;;;;;;4824795;29;20199;-89
2020/12/29 09:45:23;;;;;;;1.53;1.43;;;3.60;99.90;;;;;;4826107;29;20184;-90
2020/12/29 09:47:49;;;;;;;2.10;1.90;;;3.60;99.90;;;;;;4856077;29;20224;-88
2020/12/29 09:50:15;;;;;;;3.90;1.60;;;3.60;99.90;;;;;;4856846;29;20251;-88
2020/12/29 09:52:40;;;;;;;1.53;1.43;;;3.70;99.90;;;;;;4840585;29;20307;-89
2020/12/29 09:55:07;;;;;;;1.67;1.43;;;3.70;99.90;;;;;;4824062;29;20228;-89
2020/12/29 09:57:33;;;;;;;2.57;1.63;;;3.70;99.90;;;;;;4842671;29;20252;-87
2020/12/29 09:59:59;;;;;;;2.23;1.33;;;3.70;99.90;;;;;;4838185;29;20231;-87
2020/12/29 10:02:25;;;;;;;1.27;1.17;;;3.70;99.90;;;;;;4810942;29;20220;-88
2020/12/29 10:04:50;;;;;;;5.90;2.20;;;3.70;99.90;;;;;;4840631;29;20693;-89
2020/12/29 10:07:17;;;;;;;1.40;1.30;;;3.70;99.90;;;;;;4840063;29;21449;-90
2020/12/29 10:09:42;;;;;;;3.10;1.93;;;3.80;99.90;;;;;;4842964;29;20248;-86
2020/12/29 10:12:08;;;;;;;2.50;1.80;;;3.80;99.90;;;;;;4839517;29;20231;-88
2020/12/29 10:14:34;;;;;;;1.33;1.20;;;3.80;99.90;;;;;;4839043;29;20224;-89
2020/12/29 10:17:00;;;;;;;3.00;2.37;;;3.80;99.90;;;;;;4840616;29;20853;-88
2020/12/29 10:19:25;;;;;;;2.97;2.77;;;3.80;99.90;;;;;;4824753;29;20690;-88
2020/12/29 10:21:52;;;;;;;1.83;1.73;;;3.80;99.90;;;;;;4812633;29;20203;-89
2020/12/29 10:24:18;;;;;;;5.43;1.40;;;3.80;99.90;;;;;;4829271;29;20228;-87
2020/12/29 10:26:44;;;;;;;2.20;1.90;;;3.80;99.90;;;;;;4859205;29;20220;-90
2020/12/29 10:29:10;;;;;;;4.53;2.00;;;3.90;99.90;;;;;;4857185;29;20646;-87
2020/12/29 10:31:36;;;;;;;2.23;2.07;;;3.90;99.90;;;;;;4840737;29;20577;-88
2020/12/29 10:34:02;;;;;;;1.50;1.40;;;4.00;99.90;;;;;;4823957;29;20196;-89
2020/12/29 10:36:35;;;;;;;2.57;1.13;;;4.00;99.90;;;;;;4823932;29;20283;-87
2020/12/29 10:39:02;;;;;;;0.80;0.80;;;4.10;99.90;;;;;;4841716;29;20224;-87
2020/12/29 10:41:29;;;;;;;3.80;1.90;;;4.20;99.90;;;;;;4840103;29;20255;-85
2020/12/29 10:43:56;;;;;;;2.47;2.27;;;4.10;99.90;;;;;;4838309;29;20251;-86
2020/12/29 10:46:22;;;;;;;1.97;1.87;;;4.20;99.90;;;;;;4822845;29;20295;-89
2020/12/29 10:48:49;;;;;;;1.53;1.43;;;4.20;99.90;;;;;;4822632;29;20196;-87
2020/12/29 10:51:22;;;;;;;1.47;1.33;;;4.20;99.90;;;;;;4825851;29;20208;-87
2020/12/29 10:53:49;;;;;;;1.27;1.20;;;4.20;99.90;;;;;;4813363;29;20714;-87
2020/12/29 10:56:15;;;;;;;2.03;1.80;;;4.30;99.90;;;;;;4828152;29;20347;-86
2020/12/29 10:58:44;;;;;;;1.53;1.43;;;4.30;99.90;;;;;;4858596;29;20649;-90
2020/12/29 11:01:21;;;;;;;3.30;1.53;;;4.20;99.90;;;;;;4827511;29;20232;-87
2020/12/29 11:03:47;;;;;;;2.53;1.73;;;4.30;99.90;;;;;;4842951;29;20200;-86
2020/12/29 11:06:21;;;;;;;2.53;1.73;;;4.30;99.90;;;;;;4845974;29;20200;-88
2020/12/29 11:08:48;;;;;;;1.37;1.30;;;4.40;99.90;;;;;;4829648;29;20726;-86
2020/12/29 11:11:15;;;;;;;1.43;1.07;;;4.40;99.90;;;;;;4842883;29;20217;-86
2020/12/29 11:13:42;;;;;;;2.30;2.10;;;4.50;99.90;;;;;;4828106;29;20352;-88
2020/12/29 11:16:13;;;;;;;2.10;1.90;;;4.50;99.90;;;;;;4812653;29;20247;-87
2020/12/29 11:18:39;;;;;;;1.33;1.33;;;4.50;99.90;;;;;;4843710;29;20196;-87
2020/12/29 11:21:05;;;;;;;1.97;1.67;;;4.50;99.90;;;;;;4858708;29;20679;-91
2020/12/29 11:23:30;;;;;;;1.73;1.60;;;4.50;99.90;;;;;;4844294;29;20398;-90
2020/12/29 11:25:59;;;;;;;1.80;1.17;;;4.50;99.90;;;;;;4826325;29;20232;-90
2020/12/29 11:28:25;;;;;;;2.00;1.87;;;4.60;99.90;;;;;;4811265;29;20227;-89
2020/12/29 11:30:51;;;;;;;3.67;3.17;;;4.60;99.90;;;;;;4859935;29;20201;-93
2020/12/29 11:33:20;;;;;;;2.53;1.37;;;4.60;99.90;;;;;;4860830;29;20220;-91
2020/12/29 11:35:47;;;;;;;2.60;1.63;;;4.60;99.90;;;;;;4859816;29;20368;-87
2020/12/29 11:38:22;;;;;;;2.57;2.30;;;4.70;99.90;;;;;;4826560;29;20311;-87
2020/12/29 11:40:49;;;;;;;2.03;1.90;;;4.70;99.90;;;;;;4829890;29;20251;-89
2020/12/29 11:43:15;;;;;;;2.67;2.47;;;4.70;99.90;;;;;;4842021;29;20224;-86
2020/12/29 11:45:42;;;;;;;3.07;2.00;;;4.70;99.90;;;;;;4860410;29;20228;-86
2020/12/29 11:48:09;;;;;;;3.00;2.43;;;4.70;99.90;;;;;;4840944;29;20240;-87
2020/12/29 11:50:34;;;;;;;1.10;1.07;;;4.70;99.90;;;;;;4858437;29;20228;-86
2020/12/29 11:53:00;;;;;;;3.33;2.67;;;4.70;99.90;;;;;;4810655;29;21026;-87
2020/12/29 11:55:26;;;;;;;2.43;2.33;;;4.60;99.90;;;;;;4808833;29;20224;-88
2020/12/29 11:57:52;;;;;;;2.30;1.73;;;4.70;99.90;;;;;;4824611;29;20232;-88
2020/12/29 12:00:17;;;;;;;9.30;3.33;;;4.80;99.90;;;;;;4829740;29;21268;-91
2020/12/29 12:02:43;;;;;;;3.50;1.97;;;4.70;99.90;;;;;;4827256;29;20228;-89
2020/12/29 12:05:11;;;;;;;2.23;1.80;;;4.70;99.90;;;;;;4859294;29;20302;-90
2020/12/29 12:07:37;;;;;;;2.53;2.33;;;4.80;99.90;;;;;;4812308;29;20240;-88
2020/12/29 12:10:05;;;;;;;1.87;1.77;;;4.80;99.90;;;;;;4841260;29;20203;-88
2020/12/29 12:12:31;;;;;;;2.90;2.67;;;4.80;99.90;;;;;;4859117;29;20192;-87
2020/12/29 12:14:56;;;;;;;2.57;2.03;;;4.90;99.90;;;;;;4826743;29;20276;-86
2020/12/29 12:17:22;;;;;;;4.87;3.27;;;4.90;99.90;;;;;;4825699;29;20237;-89
2020/12/29 12:19:49;;;;;;;3.27;2.77;;;4.90;99.90;;;;;;4855986;29;20228;-88
2020/12/29 12:22:14;;;;;;;2.53;2.33;;;4.90;99.90;;;;;;4824856;29;20236;-88
2020/12/29 12:24:40;;;;;;;4.57;3.37;;;5.00;99.90;;;;;;4828720;29;20204;-88
2020/12/29 12:27:06;;;;;;;4.13;3.57;;;5.00;99.90;;;;;;4826313;29;20220;-89
2020/12/29 12:29:32;;;;;;;4.37;2.47;;;5.10;99.90;;;;;;4841364;29;20231;-88
2020/12/29 12:31:57;;;;;;;1.90;1.80;;;5.10;99.90;;;;;;4812835;29;20794;-90
2020/12/29 12:34:23;;;;;;;2.10;2.00;;;5.20;99.90;;;;;;4843600;29;20235;-88
2020/12/29 12:36:53;;;;;;;4.50;2.83;;;5.20;99.90;;;;;;4826722;29;20282;-90
2020/12/29 12:39:19;;;;;;;2.33;2.10;;;5.30;99.90;;;;;;4859339;29;20292;-90
2020/12/29 12:41:45;;;;;;;4.47;3.53;;;5.10;99.90;;;;;;4857124;29;20252;-88
2020/12/29 12:44:11;;;;;;;2.00;1.90;;;5.10;99.90;;;;;;4825847;29;20316;-88
2020/12/29 12:46:42;;;;;;;3.67;3.37;;;5.20;99.90;;;;;;4825158;29;20239;-89
2020/12/29 12:49:09;;;;;;;3.47;2.47;;;5.10;99.90;;;;;;4854930;29;20654;-89
2020/12/29 12:51:35;;;;;;;7.10;5.87;;;5.10;99.90;;;;;;4827536;29;20199;-89
2020/12/29 12:54:01;;;;;;;12.57;9.93;;;5.10;99.90;;;;;;4842915;29;20212;-88
2020/12/29 12:56:29;;;;;;;7.73;3.70;;;5.10;99.90;;;;;;4840922;29;20706;-89
2020/12/29 12:58:55;;;;;;;5.87;2.67;;;5.20;99.90;;;;;;4826329;29;20216;-88